sensor_id;sensor_type;location;lat;lon;timestamp;temperature;humidity
9403;DHT22;4741;49.834;10.740;2022-09-02T00:01:22;12.90;99.90
9403;DHT22;4741;49.834;10.740;2022-09-02T00:03:50;12.30;99.90
9403;DHT22;4741;49.834;10.740;2022-09-02T00:06:17;12.50;99.90
9403;DHT22;4741;49.834;10.740;2022-09-02T00:08:44;13.10;99.90
9403;DHT22;4741;49.834;10.740;2022-09-02T00:11:16;12.80;99.90
9403;DHT22;4741;49.834;10.740;2022-09-02T00:13:46;12.10;99.90
9403;DHT22;4741;49.834;10.740;2022-09-02T00:16:16;11.90;99.90
9403;DHT22;4741;49.834;10.740;2022-09-02T00:18:58;12.30;99.90
9403;DHT22;4741;49.834;10.740;2022-09-02T00:21:26;11.70;99.90
9403;DHT22;4741;49.834;10.740;2022-09-02T00:23:53;11.60;99.90
9403;DHT22;4741;49.834;10.740;2022-09-02T00:26:26;12.20;99.90
9403;DHT22;4741;49.834;10.740;2022-09-02T00:29:26;11.80;99.90
9403;DHT22;4741;49.834;10.740;2022-09-02T00:42:58;12.00;99.90
9403;DHT22;4741;49.834;10.740;2022-09-02T00:45:41;12.00;99.90
9403;DHT22;4741;49.834;10.740;2022-09-02T00:48:07;12.00;99.90
9403;DHT22;4741;49.834;10.740;2022-09-02T00:50:56;11.80;99.90
9403;DHT22;4741;49.834;10.740;2022-09-02T00:53:37;11.60;99.90
9403;DHT22;4741;49.834;10.740;2022-09-02T00:56:14;11.60;99.90
9403;DHT22;4741;49.834;10.740;2022-09-02T00:58:50;11.60;99.90
9403;DHT22;4741;49.834;10.740;2022-09-02T01:01:32;11.50;99.90
9403;DHT22;4741;49.834;10.740;2022-09-02T01:04:23;11.30;99.90
9403;DHT22;4741;49.834;10.740;2022-09-02T01:06:51;11.30;99.90
9403;DHT22;4741;49.834;10.740;2022-09-02T01:12:24;11.70;99.90
9403;DHT22;4741;49.834;10.740;2022-09-02T01:15:39;12.00;99.90
9403;DHT22;4741;49.834;10.740;2022-09-02T01:18:07;11.80;99.90
9403;DHT22;4741;49.834;10.740;2022-09-02T01:20:41;12.90;99.90
9403;DHT22;4741;49.834;10.740;2022-09-02T01:23:08;11.50;99.90
9403;DHT22;4741;49.834;10.740;2022-09-02T01:25:41;11.00;99.90
9403;DHT22;4741;49.834;10.740;2022-09-02T01:28:12;10.90;99.90
9403;DHT22;4741;49.834;10.740;2022-09-02T01:30:44;10.80;99.90
9403;DHT22;4741;49.834;10.740;2022-09-02T01:33:11;10.80;99.90
9403;DHT22;4741;49.834;10.740;2022-09-02T01:38:10;10.60;99.90
9403;DHT22;4741;49.834;10.740;2022-09-02T01:40:37;10.70;99.90
9403;DHT22;4741;49.834;10.740;2022-09-02T01:43:10;11.00;99.90
9403;DHT22;4741;49.834;10.740;2022-09-02T01:45:44;10.90;99.90
9403;DHT22;4741;49.834;10.740;2022-09-02T01:48:11;11.10;99.90
9403;DHT22;4741;49.834;10.740;2022-09-02T01:50:49;10.90;99.90
9403;DHT22;4741;49.834;10.740;2022-09-02T01:53:18;10.80;99.90
9403;DHT22;4741;49.834;10.740;2022-09-02T01:55:44;10.70;99.90
9403;DHT22;4741;49.834;10.740;2022-09-02T01:58:22;10.60;99.90
9403;DHT22;4741;49.834;10.740;2022-09-02T02:00:49;10.40;99.90
9403;DHT22;4741;49.834;10.740;2022-09-02T02:03:16;10.50;99.90
9403;DHT22;4741;49.834;10.740;2022-09-02T02:05:43;10.50;99.90
9403;DHT22;4741;49.834;10.740;2022-09-02T02:08:10;11.10;99.90
9403;DHT22;4741;49.834;10.740;2022-09-02T02:10:38;10.40;99.90
9403;DHT22;4741;49.834;10.740;2022-09-02T02:13:05;10.50;99.90
9403;DHT22;4741;49.834;10.740;2022-09-02T02:15:32;10.50;99.90
9403;DHT22;4741;49.834;10.740;2022-09-02T02:18:02;10.80;99.90
9403;DHT22;4741;49.834;10.740;2022-09-02T02:20:28;10.70;99.90
9403;DHT22;4741;49.834;10.740;2022-09-02T02:22:55;10.50;99.90
9403;DHT22;4741;49.834;10.740;2022-09-02T02:25:22;10.50;99.90
9403;DHT22;4741;49.834;10.740;2022-09-02T02:27:48;10.70;99.90
9403;DHT22;4741;49.834;10.740;2022-09-02T02:30:18;10.80;99.90
9403;DHT22;4741;49.834;10.740;2022-09-02T02:32:45;10.90;99.90
9403;DHT22;4741;49.834;10.740;2022-09-02T02:35:16;11.40;99.90
9403;DHT22;4741;49.834;10.740;2022-09-02T02:37:44;10.80;99.90
9403;DHT22;4741;49.834;10.740;2022-09-02T02:40:15;11.10;99.90
9403;DHT22;4741;49.834;10.740;2022-09-02T02:42:42;10.50;99.90
9403;DHT22;4741;49.834;10.740;2022-09-02T02:45:09;11.00;99.90
9403;DHT22;4741;49.834;10.740;2022-09-02T02:47:41;10.40;99.90
9403;DHT22;4741;49.834;10.740;2022-09-02T02:50:10;10.30;99.90
9403;DHT22;4741;49.834;10.740;2022-09-02T02:52:37;10.40;99.90
9403;DHT22;4741;49.834;10.740;2022-09-02T02:55:04;10.30;99.90
9403;DHT22;4741;49.834;10.740;2022-09-02T02:57:32;10.20;99.90
9403;DHT22;4741;49.834;10.740;2022-09-02T03:00:10;10.80;99.90
9403;DHT22;4741;49.834;10.740;2022-09-02T03:02:38;10.20;99.90
9403;DHT22;4741;49.834;10.740;2022-09-02T03:05:05;10.90;99.90
9403;DHT22;4741;49.834;10.740;2022-09-02T03:07:33;10.10;99.90
9403;DHT22;4741;49.834;10.740;2022-09-02T03:10:00;10.50;99.90
9403;DHT22;4741;49.834;10.740;2022-09-02T03:12:28;10.10;99.90
9403;DHT22;4741;49.834;10.740;2022-09-02T03:14:57;10.20;99.90
9403;DHT22;4741;49.834;10.740;2022-09-02T03:17:23;10.00;99.90
9403;DHT22;4741;49.834;10.740;2022-09-02T03:19:51;10.60;99.90
9403;DHT22;4741;49.834;10.740;2022-09-02T03:22:17;10.00;99.90
9403;DHT22;4741;49.834;10.740;2022-09-02T03:24:44;9.90;99.90
9403;DHT22;4741;49.834;10.740;2022-09-02T03:27:11;10.90;99.90
9403;DHT22;4741;49.834;10.740;2022-09-02T03:29:38;11.00;99.90
9403;DHT22;4741;49.834;10.740;2022-09-02T03:32:04;10.20;99.90
9403;DHT22;4741;49.834;10.740;2022-09-02T03:34:33;10.10;99.90
9403;DHT22;4741;49.834;10.740;2022-09-02T03:37:00;10.20;99.90
9403;DHT22;4741;49.834;10.740;2022-09-02T03:39:26;10.40;99.90
9403;DHT22;4741;49.834;10.740;2022-09-02T03:41:53;10.10;99.90
9403;DHT22;4741;49.834;10.740;2022-09-02T03:44:20;10.00;99.90
9403;DHT22;4741;49.834;10.740;2022-09-02T03:46:46;9.90;99.90
9403;DHT22;4741;49.834;10.740;2022-09-02T03:51:40;9.70;99.90
9403;DHT22;4741;49.834;10.740;2022-09-02T03:54:07;9.70;99.90
9403;DHT22;4741;49.834;10.740;2022-09-02T03:56:35;9.70;99.90
9403;DHT22;4741;49.834;10.740;2022-09-02T03:59:03;9.80;99.90
9403;DHT22;4741;49.834;10.740;2022-09-02T04:01:30;9.70;99.90
9403;DHT22;4741;49.834;10.740;2022-09-02T04:04:00;9.80;99.90
9403;DHT22;4741;49.834;10.740;2022-09-02T04:06:27;9.80;99.90
9403;DHT22;4741;49.834;10.740;2022-09-02T04:08:58;9.90;99.90
9403;DHT22;4741;49.834;10.740;2022-09-02T04:11:25;9.90;99.90
9403;DHT22;4741;49.834;10.740;2022-09-02T04:13:52;9.70;99.90
9403;DHT22;4741;49.834;10.740;2022-09-02T04:16:20;9.70;99.90
9403;DHT22;4741;49.834;10.740;2022-09-02T04:18:53;9.50;99.90
9403;DHT22;4741;49.834;10.740;2022-09-02T04:21:21;10.20;99.90
9403;DHT22;4741;49.834;10.740;2022-09-02T04:23:48;10.00;99.90
9403;DHT22;4741;49.834;10.740;2022-09-02T04:26:15;9.90;99.90
9403;DHT22;4741;49.834;10.740;2022-09-02T04:28:43;9.40;99.90
9403;DHT22;4741;49.834;10.740;2022-09-02T04:31:11;9.40;99.90
9403;DHT22;4741;49.834;10.740;2022-09-02T04:33:38;9.40;99.90
9403;DHT22;4741;49.834;10.740;2022-09-02T04:36:12;9.30;99.90
9403;DHT22;4741;49.834;10.740;2022-09-02T04:38:58;9.30;99.90
9403;DHT22;4741;49.834;10.740;2022-09-02T04:41:37;9.30;99.90
9403;DHT22;4741;49.834;10.740;2022-09-02T04:44:04;9.30;99.90
9403;DHT22;4741;49.834;10.740;2022-09-02T04:49:00;9.10;99.90
9403;DHT22;4741;49.834;10.740;2022-09-02T04:51:27;9.90;99.90
9403;DHT22;4741;49.834;10.740;2022-09-02T04:53:54;9.20;99.90
9403;DHT22;4741;49.834;10.740;2022-09-02T04:56:22;9.10;99.90
9403;DHT22;4741;49.834;10.740;2022-09-02T04:58:49;9.20;99.90
9403;DHT22;4741;49.834;10.740;2022-09-02T05:08:38;8.90;99.90
9403;DHT22;4741;49.834;10.740;2022-09-02T05:11:08;9.00;99.90
9403;DHT22;4741;49.834;10.740;2022-09-02T05:13:35;9.10;99.90
9403;DHT22;4741;49.834;10.740;2022-09-02T05:16:02;9.10;99.90
9403;DHT22;4741;49.834;10.740;2022-09-02T05:18:32;9.30;99.90
9403;DHT22;4741;49.834;10.740;2022-09-02T05:20:59;9.40;99.90
9403;DHT22;4741;49.834;10.740;2022-09-02T05:23:25;9.50;99.90
9403;DHT22;4741;49.834;10.740;2022-09-02T05:25:52;9.40;99.90
9403;DHT22;4741;49.834;10.740;2022-09-02T05:28:19;9.40;99.90
9403;DHT22;4741;49.834;10.740;2022-09-02T05:38:07;9.40;99.90
9403;DHT22;4741;49.834;10.740;2022-09-02T05:40:37;10.00;99.90
9403;DHT22;4741;49.834;10.740;2022-09-02T05:43:05;10.00;99.90
9403;DHT22;4741;49.834;10.740;2022-09-02T05:45:32;10.30;99.90
9403;DHT22;4741;49.834;10.740;2022-09-02T05:47:59;10.80;99.90
9403;DHT22;4741;49.834;10.740;2022-09-02T05:50:46;11.00;99.90
9403;DHT22;4741;49.834;10.740;2022-09-02T05:53:15;11.20;99.90
9403;DHT22;4741;49.834;10.740;2022-09-02T05:55:42;11.10;99.90
9403;DHT22;4741;49.834;10.740;2022-09-02T05:58:09;11.40;99.90
9403;DHT22;4741;49.834;10.740;2022-09-02T06:12:56;11.50;99.90
9403;DHT22;4741;49.834;10.740;2022-09-02T06:15:23;11.70;99.90
9403;DHT22;4741;49.834;10.740;2022-09-02T06:17:53;12.20;99.90
9403;DHT22;4741;49.834;10.740;2022-09-02T06:20:20;12.30;99.90
9403;DHT22;4741;49.834;10.740;2022-09-02T06:22:46;11.70;99.90
9403;DHT22;4741;49.834;10.740;2022-09-02T06:25:14;12.00;99.90
9403;DHT22;4741;49.834;10.740;2022-09-02T06:27:43;12.20;99.90
9403;DHT22;4741;49.834;10.740;2022-09-02T06:30:15;12.40;99.90
9403;DHT22;4741;49.834;10.740;2022-09-02T06:32:42;13.40;99.90
9403;DHT22;4741;49.834;10.740;2022-09-02T06:35:19;13.30;99.90
9403;DHT22;4741;49.834;10.740;2022-09-02T06:37:45;13.00;99.90
9403;DHT22;4741;49.834;10.740;2022-09-02T06:40:12;13.00;99.90
9403;DHT22;4741;49.834;10.740;2022-09-02T06:42:40;13.70;99.90
9403;DHT22;4741;49.834;10.740;2022-09-02T06:45:07;14.30;99.90
9403;DHT22;4741;49.834;10.740;2022-09-02T06:47:34;13.70;99.90
9403;DHT22;4741;49.834;10.740;2022-09-02T06:50:01;14.00;99.90
9403;DHT22;4741;49.834;10.740;2022-09-02T06:52:28;14.90;99.90
9403;DHT22;4741;49.834;10.740;2022-09-02T06:54:55;15.20;99.90
9403;DHT22;4741;49.834;10.740;2022-09-02T06:57:21;15.00;99.90
9403;DHT22;4741;49.834;10.740;2022-09-02T06:59:56;14.80;99.90
9403;DHT22;4741;49.834;10.740;2022-09-02T07:04:55;14.90;99.90
9403;DHT22;4741;49.834;10.740;2022-09-02T07:07:41;15.30;99.90
9403;DHT22;4741;49.834;10.740;2022-09-02T07:10:12;15.50;99.90
9403;DHT22;4741;49.834;10.740;2022-09-02T07:12:40;15.60;99.90
9403;DHT22;4741;49.834;10.740;2022-09-02T07:15:10;15.70;99.90
9403;DHT22;4741;49.834;10.740;2022-09-02T07:20:04;16.10;99.90
9403;DHT22;4741;49.834;10.740;2022-09-02T07:22:33;16.40;99.90
9403;DHT22;4741;49.834;10.740;2022-09-02T07:25:04;16.60;99.90
9403;DHT22;4741;49.834;10.740;2022-09-02T07:27:32;16.70;99.90
9403;DHT22;4741;49.834;10.740;2022-09-02T07:29:59;17.10;99.90
9403;DHT22;4741;49.834;10.740;2022-09-02T07:32:26;17.30;99.90
9403;DHT22;4741;49.834;10.740;2022-09-02T07:34:53;16.90;99.90
9403;DHT22;4741;49.834;10.740;2022-09-02T07:37:20;17.50;99.90
9403;DHT22;4741;49.834;10.740;2022-09-02T07:39:49;17.20;99.90
9403;DHT22;4741;49.834;10.740;2022-09-02T07:42:19;17.50;99.90
9403;DHT22;4741;49.834;10.740;2022-09-02T07:44:46;17.70;99.90
9403;DHT22;4741;49.834;10.740;2022-09-02T07:47:13;17.40;99.90
9403;DHT22;4741;49.834;10.740;2022-09-02T07:49:39;17.50;99.90
9403;DHT22;4741;49.834;10.740;2022-09-02T07:52:26;17.80;99.90
9403;DHT22;4741;49.834;10.740;2022-09-02T07:54:53;18.20;99.90
9403;DHT22;4741;49.834;10.740;2022-09-02T07:57:23;18.20;99.90
9403;DHT22;4741;49.834;10.740;2022-09-02T07:59:50;18.80;99.90
9403;DHT22;4741;49.834;10.740;2022-09-02T08:02:17;18.20;99.90
9403;DHT22;4741;49.834;10.740;2022-09-02T08:04:47;18.40;99.90
9403;DHT22;4741;49.834;10.740;2022-09-02T08:07:14;18.70;99.90
9403;DHT22;4741;49.834;10.740;2022-09-02T08:09:42;18.70;99.90
9403;DHT22;4741;49.834;10.740;2022-09-02T08:12:09;19.20;99.90
9403;DHT22;4741;49.834;10.740;2022-09-02T08:14:35;19.00;99.90
9403;DHT22;4741;49.834;10.740;2022-09-02T08:17:02;19.00;99.90
9403;DHT22;4741;49.834;10.740;2022-09-02T08:19:29;19.30;99.90
9403;DHT22;4741;49.834;10.740;2022-09-02T08:22:01;18.40;99.90
9403;DHT22;4741;49.834;10.740;2022-09-02T08:24:31;19.40;99.90
9403;DHT22;4741;49.834;10.740;2022-09-02T08:26:58;19.10;99.90
9403;DHT22;4741;49.834;10.740;2022-09-02T08:31:52;19.40;99.90
9403;DHT22;4741;49.834;10.740;2022-09-02T08:34:19;19.70;99.90
9403;DHT22;4741;49.834;10.740;2022-09-02T08:36:46;20.20;99.90
9403;DHT22;4741;49.834;10.740;2022-09-02T08:39:21;20.30;99.90
9403;DHT22;4741;49.834;10.740;2022-09-02T08:44:21;20.30;99.90
9403;DHT22;4741;49.834;10.740;2022-09-02T08:46:51;20.40;99.90
9403;DHT22;4741;49.834;10.740;2022-09-02T08:49:30;20.80;99.90
9403;DHT22;4741;49.834;10.740;2022-09-02T08:52:01;20.50;99.90
9403;DHT22;4741;49.834;10.740;2022-09-02T08:56:55;21.20;99.90
9403;DHT22;4741;49.834;10.740;2022-09-02T08:59:22;20.60;99.90
9403;DHT22;4741;49.834;10.740;2022-09-02T09:21:51;21.20;99.90
9403;DHT22;4741;49.834;10.740;2022-09-02T09:24:20;21.30;99.90
9403;DHT22;4741;49.834;10.740;2022-09-02T09:26:56;22.30;99.90
9403;DHT22;4741;49.834;10.740;2022-09-02T09:29:23;21.10;99.90
9403;DHT22;4741;49.834;10.740;2022-09-02T09:34:20;21.50;99.90
9403;DHT22;4741;49.834;10.740;2022-09-02T09:36:48;22.20;99.90
9403;DHT22;4741;49.834;10.740;2022-09-02T09:41:55;21.70;99.90
9403;DHT22;4741;49.834;10.740;2022-09-02T09:47:22;21.20;99.90
9403;DHT22;4741;49.834;10.740;2022-09-02T09:52:24;21.20;99.90
9403;DHT22;4741;49.834;10.740;2022-09-02T09:57:39;22.30;99.90
9403;DHT22;4741;49.834;10.740;2022-09-02T10:00:21;23.30;99.90
9403;DHT22;4741;49.834;10.740;2022-09-02T10:02:51;22.00;99.90
9403;DHT22;4741;49.834;10.740;2022-09-02T10:07:53;22.10;99.90
9403;DHT22;4741;49.834;10.740;2022-09-02T10:10:24;22.10;99.90
9403;DHT22;4741;49.834;10.740;2022-09-02T10:20:19;23.00;99.00
9403;DHT22;4741;49.834;10.740;2022-09-02T10:25:41;23.10;96.40
9403;DHT22;4741;49.834;10.740;2022-09-02T10:28:35;23.60;97.20
9403;DHT22;4741;49.834;10.740;2022-09-02T10:38:50;23.60;96.00
9403;DHT22;4741;49.834;10.740;2022-09-02T10:47:09;23.10;95.80
9403;DHT22;4741;49.834;10.740;2022-09-02T10:55:09;24.10;94.80
9403;DHT22;4741;49.834;10.740;2022-09-02T10:57:49;24.10;94.40
9403;DHT22;4741;49.834;10.740;2022-09-02T11:00:20;24.80;93.60
9403;DHT22;4741;49.834;10.740;2022-09-02T11:02:57;25.30;93.40
9403;DHT22;4741;49.834;10.740;2022-09-02T11:08:37;26.60;99.90
9403;DHT22;4741;49.834;10.740;2022-09-02T11:10:58;26.20;91.00
9403;DHT22;4741;49.834;10.740;2022-09-02T11:16:14;25.80;90.50
9403;DHT22;4741;49.834;10.740;2022-09-02T11:18:58;25.80;87.50
9403;DHT22;4741;49.834;10.740;2022-09-02T11:24:03;26.30;91.20
9403;DHT22;4741;49.834;10.740;2022-09-02T11:41:18;24.90;87.20
9403;DHT22;4741;49.834;10.740;2022-09-02T11:44:22;25.00;98.20
9403;DHT22;4741;49.834;10.740;2022-09-02T11:57:13;25.70;84.90
9403;DHT22;4741;49.834;10.740;2022-09-02T12:03:12;27.90;81.30
9403;DHT22;4741;49.834;10.740;2022-09-02T12:11:05;27.40;85.20
9403;DHT22;4741;49.834;10.740;2022-09-02T12:13:39;28.60;77.40
9403;DHT22;4741;49.834;10.740;2022-09-02T12:36:55;26.70;78.20
9403;DHT22;4741;49.834;10.740;2022-09-02T12:47:04;30.30;75.30
9403;DHT22;4741;49.834;10.740;2022-09-02T12:54:47;27.70;77.10
9403;DHT22;4741;49.834;10.740;2022-09-02T12:57:20;30.30;92.10
9403;DHT22;4741;49.834;10.740;2022-09-02T13:07:59;30.70;67.10
9403;DHT22;4741;49.834;10.740;2022-09-02T13:21:36;30.30;66.40
9403;DHT22;4741;49.834;10.740;2022-09-02T13:26:57;30.10;68.40
9403;DHT22;4741;49.834;10.740;2022-09-02T13:32:00;28.00;98.90
9403;DHT22;4741;49.834;10.740;2022-09-02T13:34:30;28.40;97.70
9403;DHT22;4741;49.834;10.740;2022-09-02T13:37:03;29.80;90.00
9403;DHT22;4741;49.834;10.740;2022-09-02T13:39:29;28.20;90.10
9403;DHT22;4741;49.834;10.740;2022-09-02T13:42:13;27.20;68.80
9403;DHT22;4741;49.834;10.740;2022-09-02T13:47:13;26.70;75.60
9403;DHT22;4741;49.834;10.740;2022-09-02T13:49:46;29.40;68.20
9403;DHT22;4741;49.834;10.740;2022-09-02T13:54:43;29.60;67.80
9403;DHT22;4741;49.834;10.740;2022-09-02T13:59:38;26.50;71.20
9403;DHT22;4741;49.834;10.740;2022-09-02T14:07:32;31.10;64.50
9403;DHT22;4741;49.834;10.740;2022-09-02T14:12:28;30.20;99.60
9403;DHT22;4741;49.834;10.740;2022-09-02T14:14:58;30.50;97.20
9403;DHT22;4741;49.834;10.740;2022-09-02T14:17:25;31.70;86.40
9403;DHT22;4741;49.834;10.740;2022-09-02T14:20:07;31.70;85.80
9403;DHT22;4741;49.834;10.740;2022-09-02T14:22:34;31.00;89.00
9403;DHT22;4741;49.834;10.740;2022-09-02T14:25:12;31.40;61.30
9403;DHT22;4741;49.834;10.740;2022-09-02T14:37:55;32.50;67.90
9403;DHT22;4741;49.834;10.740;2022-09-02T15:02:40;32.30;66.50
9403;DHT22;4741;49.834;10.740;2022-09-02T15:05:09;32.70;70.90
9403;DHT22;4741;49.834;10.740;2022-09-02T15:37:11;29.20;75.50
9403;DHT22;4741;49.834;10.740;2022-09-02T15:39:38;31.30;74.50
9403;DHT22;4741;49.834;10.740;2022-09-02T15:42:06;31.30;80.10
9403;DHT22;4741;49.834;10.740;2022-09-02T15:47:00;31.20;94.00
9403;DHT22;4741;49.834;10.740;2022-09-02T16:21:48;30.40;90.70
9403;DHT22;4741;49.834;10.740;2022-09-02T16:24:20;31.90;87.20
9403;DHT22;4741;49.834;10.740;2022-09-02T16:26:56;30.00;84.60
9403;DHT22;4741;49.834;10.740;2022-09-02T16:29:23;31.50;93.20
9403;DHT22;4741;49.834;10.740;2022-09-02T16:31:53;28.90;80.40
9403;DHT22;4741;49.834;10.740;2022-09-02T16:34:40;27.50;67.30
9403;DHT22;4741;49.834;10.740;2022-09-02T16:37:24;26.20;63.70
9403;DHT22;4741;49.834;10.740;2022-09-02T16:40:05;25.50;65.70
9403;DHT22;4741;49.834;10.740;2022-09-02T16:45:04;24.40;67.80
9403;DHT22;4741;49.834;10.740;2022-09-02T16:47:31;24.00;69.00
9403;DHT22;4741;49.834;10.740;2022-09-02T16:49:57;23.90;69.20
9403;DHT22;4741;49.834;10.740;2022-09-02T16:52:24;23.50;71.00
9403;DHT22;4741;49.834;10.740;2022-09-02T16:54:51;23.50;70.50
9403;DHT22;4741;49.834;10.740;2022-09-02T16:57:18;23.10;72.00
9403;DHT22;4741;49.834;10.740;2022-09-02T17:02:11;22.90;72.40
9403;DHT22;4741;49.834;10.740;2022-09-02T17:04:38;22.80;72.90
9403;DHT22;4741;49.834;10.740;2022-09-02T17:07:05;22.70;73.50
9403;DHT22;4741;49.834;10.740;2022-09-02T17:09:31;21.90;74.60
9403;DHT22;4741;49.834;10.740;2022-09-02T17:14:25;22.30;74.10
9403;DHT22;4741;49.834;10.740;2022-09-02T17:16:52;21.10;74.40
9403;DHT22;4741;49.834;10.740;2022-09-02T17:19:19;21.90;75.70
9403;DHT22;4741;49.834;10.740;2022-09-02T17:21:48;21.70;75.40
9403;DHT22;4741;49.834;10.740;2022-09-02T17:24:16;22.70;76.40
9403;DHT22;4741;49.834;10.740;2022-09-02T17:26:44;22.80;77.00
9403;DHT22;4741;49.834;10.740;2022-09-02T17:29:13;23.00;77.80
9403;DHT22;4741;49.834;10.740;2022-09-02T17:32:01;21.40;77.00
9403;DHT22;4741;49.834;10.740;2022-09-02T17:34:28;22.20;79.40
9403;DHT22;4741;49.834;10.740;2022-09-02T17:36:57;22.50;80.40
9403;DHT22;4741;49.834;10.740;2022-09-02T17:39:24;21.20;79.00
9403;DHT22;4741;49.834;10.740;2022-09-02T17:41:52;21.40;80.10
9403;DHT22;4741;49.834;10.740;2022-09-02T17:44:28;20.90;79.70
9403;DHT22;4741;49.834;10.740;2022-09-02T17:47:19;20.90;80.90
9403;DHT22;4741;49.834;10.740;2022-09-02T17:49:46;20.80;81.20
9403;DHT22;4741;49.834;10.740;2022-09-02T17:52:14;20.60;80.70
9403;DHT22;4741;49.834;10.740;2022-09-02T17:54:41;20.50;81.90
9403;DHT22;4741;49.834;10.740;2022-09-02T17:59:39;20.20;82.50
9403;DHT22;4741;49.834;10.740;2022-09-02T18:04:51;20.10;83.20
9403;DHT22;4741;49.834;10.740;2022-09-02T18:10:01;19.90;85.10
9403;DHT22;4741;49.834;10.740;2022-09-02T18:12:28;19.90;85.20
9403;DHT22;4741;49.834;10.740;2022-09-02T18:14:56;19.80;85.30
9403;DHT22;4741;49.834;10.740;2022-09-02T18:24:53;20.10;87.90
9403;DHT22;4741;49.834;10.740;2022-09-02T18:30:14;19.20;88.10
9403;DHT22;4741;49.834;10.740;2022-09-02T18:37:55;19.00;88.50
9403;DHT22;4741;49.834;10.740;2022-09-02T18:42:58;19.20;90.40
9403;DHT22;4741;49.834;10.740;2022-09-02T18:45:30;18.90;90.40
9403;DHT22;4741;49.834;10.740;2022-09-02T18:48:01;18.90;90.20
9403;DHT22;4741;49.834;10.740;2022-09-02T18:50:32;19.20;90.70
9403;DHT22;4741;49.834;10.740;2022-09-02T18:53:27;19.80;91.10
9403;DHT22;4741;49.834;10.740;2022-09-02T18:55:53;18.40;91.60
9403;DHT22;4741;49.834;10.740;2022-09-02T18:58:46;18.30;91.60
9403;DHT22;4741;49.834;10.740;2022-09-02T19:01:22;18.90;92.50
9403;DHT22;4741;49.834;10.740;2022-09-02T19:03:49;18.20;92.70
9403;DHT22;4741;49.834;10.740;2022-09-02T19:06:17;17.40;92.50
9403;DHT22;4741;49.834;10.740;2022-09-02T19:08:44;18.00;92.70
9403;DHT22;4741;49.834;10.740;2022-09-02T19:11:12;17.80;93.40
9403;DHT22;4741;49.834;10.740;2022-09-02T19:13:47;17.80;93.70
9403;DHT22;4741;49.834;10.740;2022-09-02T19:16:16;17.80;93.80
9403;DHT22;4741;49.834;10.740;2022-09-02T19:18:43;17.70;94.00
9403;DHT22;4741;49.834;10.740;2022-09-02T19:21:11;17.60;94.60
9403;DHT22;4741;49.834;10.740;2022-09-02T19:23:40;17.50;94.80
9403;DHT22;4741;49.834;10.740;2022-09-02T19:26:07;17.10;95.10
9403;DHT22;4741;49.834;10.740;2022-09-02T19:28:34;18.20;95.70
9403;DHT22;4741;49.834;10.740;2022-09-02T19:31:01;17.10;95.30
9403;DHT22;4741;49.834;10.740;2022-09-02T19:33:29;17.20;95.80
9403;DHT22;4741;49.834;10.740;2022-09-02T19:35:57;17.70;96.20
9403;DHT22;4741;49.834;10.740;2022-09-02T19:38:25;17.40;96.40
9403;DHT22;4741;49.834;10.740;2022-09-02T19:40:52;17.10;96.40
9403;DHT22;4741;49.834;10.740;2022-09-02T19:43:19;16.90;96.80
9403;DHT22;4741;49.834;10.740;2022-09-02T19:45:46;16.80;96.40
9403;DHT22;4741;49.834;10.740;2022-09-02T19:48:17;16.50;97.70
9403;DHT22;4741;49.834;10.740;2022-09-02T19:50:45;16.20;99.30
9403;DHT22;4741;49.834;10.740;2022-09-02T19:53:20;16.70;99.90
9403;DHT22;4741;49.834;10.740;2022-09-02T19:55:47;15.80;99.90
9403;DHT22;4741;49.834;10.740;2022-09-02T19:58:14;15.80;99.90
9403;DHT22;4741;49.834;10.740;2022-09-02T20:00:42;16.30;99.90
9403;DHT22;4741;49.834;10.740;2022-09-02T20:03:09;16.60;99.90
9403;DHT22;4741;49.834;10.740;2022-09-02T20:05:38;16.20;99.90
9403;DHT22;4741;49.834;10.740;2022-09-02T20:08:06;16.20;99.90
9403;DHT22;4741;49.834;10.740;2022-09-02T20:10:35;16.60;99.90
9403;DHT22;4741;49.834;10.740;2022-09-02T20:13:02;15.40;99.90
9403;DHT22;4741;49.834;10.740;2022-09-02T20:15:29;16.30;99.90
9403;DHT22;4741;49.834;10.740;2022-09-02T20:18:13;15.10;99.90
9403;DHT22;4741;49.834;10.740;2022-09-02T20:20:40;15.00;99.90
9403;DHT22;4741;49.834;10.740;2022-09-02T20:23:08;14.60;99.90
9403;DHT22;4741;49.834;10.740;2022-09-02T20:28:32;15.10;99.90
9403;DHT22;4741;49.834;10.740;2022-09-02T20:31:02;15.10;99.90
9403;DHT22;4741;49.834;10.740;2022-09-02T20:33:32;15.70;99.90
9403;DHT22;4741;49.834;10.740;2022-09-02T20:36:06;15.70;99.90
9403;DHT22;4741;49.834;10.740;2022-09-02T20:39:11;14.70;99.90
9403;DHT22;4741;49.834;10.740;2022-09-02T20:44:11;14.10;99.90
9403;DHT22;4741;49.834;10.740;2022-09-02T20:46:46;14.20;99.90
9403;DHT22;4741;49.834;10.740;2022-09-02T20:51:57;13.90;99.90
9403;DHT22;4741;49.834;10.740;2022-09-02T20:59:26;14.40;99.90
9403;DHT22;4741;49.834;10.740;2022-09-02T21:01:58;14.80;99.90
9403;DHT22;4741;49.834;10.740;2022-09-02T21:04:50;14.90;99.90
9403;DHT22;4741;49.834;10.740;2022-09-02T21:07:24;15.10;99.90
9403;DHT22;4741;49.834;10.740;2022-09-02T21:15:04;13.70;99.90
9403;DHT22;4741;49.834;10.740;2022-09-02T21:17:51;14.80;99.90
9403;DHT22;4741;49.834;10.740;2022-09-02T21:20:23;13.90;99.90
9403;DHT22;4741;49.834;10.740;2022-09-02T21:22:51;13.40;99.90
9403;DHT22;4741;49.834;10.740;2022-09-02T21:25:38;13.60;99.90
9403;DHT22;4741;49.834;10.740;2022-09-02T21:28:16;13.30;99.90
9403;DHT22;4741;49.834;10.740;2022-09-02T21:30:46;13.30;99.90
9403;DHT22;4741;49.834;10.740;2022-09-02T21:33:15;13.40;99.90
9403;DHT22;4741;49.834;10.740;2022-09-02T21:40:49;13.50;99.90
9403;DHT22;4741;49.834;10.740;2022-09-02T21:45:54;13.70;99.90
9403;DHT22;4741;49.834;10.740;2022-09-02T21:48:44;13.50;99.90
9403;DHT22;4741;49.834;10.740;2022-09-02T21:51:23;13.20;99.90
9403;DHT22;4741;49.834;10.740;2022-09-02T22:01:55;12.70;99.90
9403;DHT22;4741;49.834;10.740;2022-09-02T22:04:28;12.70;99.90
9403;DHT22;4741;49.834;10.740;2022-09-02T22:07:07;12.60;99.90
9403;DHT22;4741;49.834;10.740;2022-09-02T22:09:49;12.40;99.90
9403;DHT22;4741;49.834;10.740;2022-09-02T22:12:19;12.70;99.90
9403;DHT22;4741;49.834;10.740;2022-09-02T22:15:52;12.80;99.90
9403;DHT22;4741;49.834;10.740;2022-09-02T22:17:49;12.90;99.90
9403;DHT22;4741;49.834;10.740;2022-09-02T22:20:23;12.80;99.90
9403;DHT22;4741;49.834;10.740;2022-09-02T22:22:59;12.80;99.90
9403;DHT22;4741;49.834;10.740;2022-09-02T22:25:29;12.50;99.90
9403;DHT22;4741;49.834;10.740;2022-09-02T22:27:59;12.30;99.90
9403;DHT22;4741;49.834;10.740;2022-09-02T22:30:27;12.50;99.90
9403;DHT22;4741;49.834;10.740;2022-09-02T22:33:05;12.10;99.90
9403;DHT22;4741;49.834;10.740;2022-09-02T22:35:39;12.00;99.90
9403;DHT22;4741;49.834;10.740;2022-09-02T22:38:12;11.90;99.90
9403;DHT22;4741;49.834;10.740;2022-09-02T22:40:43;11.90;99.90
9403;DHT22;4741;49.834;10.740;2022-09-02T22:43:11;13.00;99.90
9403;DHT22;4741;49.834;10.740;2022-09-02T22:45:41;12.30;99.90
9403;DHT22;4741;49.834;10.740;2022-09-02T22:48:32;12.30;99.90
9403;DHT22;4741;49.834;10.740;2022-09-02T22:51:20;11.70;99.90
9403;DHT22;4741;49.834;10.740;2022-09-02T22:54:07;11.70;99.90
9403;DHT22;4741;49.834;10.740;2022-09-02T22:59:21;11.90;99.90